Time;durP1;ratioP1;P1;durP2;ratioP2;P2;SDS_P1;SDS_P2;PMS_P1;PMS_P2;Temp;Humidity;BMP_temperature;BMP_pressure;BME280_temperature;BME280_humidity;BME280_pressure;Samples;Min_cycle;Max_cycle;Signal;HPM_P1;HPM_P2
2022/03/08 00:02:07;;;;;;;12.95;6.85;;;0.40;99.90;;;;;;5033231;28;20121;-88
2022/03/08 00:04:33;;;;;;;12.30;7.13;;;0.40;99.90;;;;;;5033515;28;20258;-88
2022/03/08 00:07:00;;;;;;;12.18;6.75;;;0.40;99.90;;;;;;5033736;28;20030;-88
2022/03/08 00:09:26;;;;;;;14.73;7.07;;;0.40;99.90;;;;;;5033340;28;20460;-88
2022/03/08 00:11:52;;;;;;;13.57;7.93;;;0.40;99.90;;;;;;5033039;28;20043;-88
2022/03/08 00:14:19;;;;;;;14.60;8.55;;;0.40;99.90;;;;;;5033323;28;20531;-88
2022/03/08 00:16:45;;;;;;;13.70;8.05;;;0.40;99.90;;;;;;5033042;28;20116;-88
2022/03/08 00:19:11;;;;;;;17.05;7.57;;;0.40;99.90;;;;;;5032955;28;20068;-88
2022/03/08 00:21:37;;;;;;;13.18;8.10;;;0.40;99.90;;;;;;5034237;28;20077;-88
2022/03/08 00:24:03;;;;;;;12.25;7.43;;;0.40;99.90;;;;;;5032836;28;20087;-88
2022/03/08 00:26:29;;;;;;;16.27;7.38;;;0.50;99.90;;;;;;5033312;28;20033;-88
2022/03/08 00:28:55;;;;;;;12.13;7.25;;;0.50;99.90;;;;;;5032934;28;20022;-88
2022/03/08 00:31:21;;;;;;;13.98;7.85;;;0.50;99.90;;;;;;5033164;28;20025;-88
2022/03/08 00:33:47;;;;;;;14.63;8.32;;;0.40;99.90;;;;;;5033030;28;20028;-88
2022/03/08 00:36:12;;;;;;;11.57;6.95;;;0.40;99.90;;;;;;5033324;28;20507;-88
2022/03/08 00:38:38;;;;;;;12.45;7.13;;;0.40;99.90;;;;;;5032688;28;20030;-88
2022/03/08 00:41:04;;;;;;;10.77;6.75;;;0.30;99.90;;;;;;5034074;28;20039;-88
2022/03/08 00:43:30;;;;;;;11.27;7.10;;;0.40;99.90;;;;;;5032942;28;20029;-88
2022/03/08 00:45:56;;;;;;;14.13;7.18;;;0.40;99.90;;;;;;5034197;28;20456;-88
2022/03/08 00:48:22;;;;;;;9.52;6.72;;;0.40;99.90;;;;;;5033067;28;20029;-88
2022/03/08 00:50:48;;;;;;;12.18;7.30;;;0.40;99.90;;;;;;5035609;28;20044;-88
2022/03/08 00:53:14;;;;;;;12.40;7.38;;;0.40;99.90;;;;;;5036549;28;20068;-88
2022/03/08 00:55:40;;;;;;;11.35;6.82;;;0.40;99.90;;;;;;5037734;28;20484;-88
2022/03/08 00:58:07;;;;;;;12.75;7.85;;;0.40;99.90;;;;;;5036701;28;20036;-88
2022/03/08 01:00:35;;;;;;;12.00;7.20;;;0.40;99.90;;;;;;5036553;28;20091;-88
2022/03/08 01:03:01;;;;;;;11.75;7.93;;;0.30;99.90;;;;;;5036499;28;20029;-88
2022/03/08 01:05:28;;;;;;;12.15;7.80;;;0.30;99.90;;;;;;5037766;28;20119;-88
2022/03/08 01:07:55;;;;;;;11.30;7.00;;;0.30;99.90;;;;;;5036606;28;20021;-88
2022/03/08 01:10:23;;;;;;;11.70;7.72;;;0.40;99.90;;;;;;5037456;28;20025;-88
2022/03/08 01:12:50;;;;;;;13.23;7.45;;;0.40;99.90;;;;;;5036329;28;20464;-88
2022/03/08 01:15:16;;;;;;;11.70;7.38;;;0.30;99.90;;;;;;5037273;28;20426;-88
2022/03/08 01:17:43;;;;;;;11.85;7.40;;;0.30;99.90;;;;;;5036263;28;20461;-88
2022/03/08 01:20:10;;;;;;;12.27;7.20;;;0.30;99.90;;;;;;5036142;28;20488;-88
2022/03/08 01:22:37;;;;;;;11.70;7.85;;;0.30;99.90;;;;;;5035653;28;20029;-88
2022/03/08 01:25:04;;;;;;;12.40;6.97;;;0.30;99.90;;;;;;5036334;28;20025;-88
2022/03/08 01:27:30;;;;;;;14.30;8.20;;;0.30;99.90;;;;;;5036205;28;20468;-88
2022/03/08 01:29:56;;;;;;;17.00;8.05;;;0.20;99.90;;;;;;5037060;28;20021;-88
2022/03/08 01:32:21;;;;;;;11.55;8.15;;;0.20;99.90;;;;;;5037148;28;20026;-88
2022/03/08 01:34:47;;;;;;;15.55;8.68;;;0.20;99.90;;;;;;5036995;28;20508;-88
2022/03/08 01:37:14;;;;;;;18.10;9.15;;;0.20;99.90;;;;;;5036039;28;20061;-88
2022/03/08 01:39:40;;;;;;;15.60;8.93;;;0.10;99.90;;;;;;5035791;28;20120;-88
2022/03/08 01:42:14;;;;;;;15.95;9.02;;;0.20;99.90;;;;;;5035618;28;20021;-88
2022/03/08 01:44:44;;;;;;;14.90;9.02;;;0.20;99.90;;;;;;5035698;28;20053;-88
2022/03/08 01:47:15;;;;;;;15.30;9.40;;;0.20;99.90;;;;;;5036034;28;20039;-87
2022/03/08 01:49:41;;;;;;;;;;;0.20;99.90;;;;;;5037172;28;20021;-88
2022/03/08 01:52:07;;;;;;;14.00;8.15;;;0.20;99.90;;;;;;5035611;28;19905;-88
2022/03/08 01:54:33;;;;;;;13.38;8.18;;;0.20;99.90;;;;;;5036659;28;20472;-88
2022/03/08 01:56:59;;;;;;;18.10;7.78;;;0.20;99.90;;;;;;5035547;28;20026;-88
2022/03/08 01:59:24;;;;;;;12.98;7.57;;;0.20;99.90;;;;;;5035093;28;20093;-88
2022/03/08 02:01:51;;;;;;;12.32;7.63;;;0.20;99.90;;;;;;5034432;28;20025;-88
2022/03/08 02:04:16;;;;;;;14.88;8.20;;;0.20;99.90;;;;;;5036549;28;20479;-88
2022/03/08 02:06:44;;;;;;;13.13;7.68;;;0.20;99.90;;;;;;5035381;28;20039;-88
2022/03/08 02:09:10;;;;;;;13.13;7.40;;;0.10;99.90;;;;;;5035459;28;20036;-88
2022/03/08 02:11:37;;;;;;;13.95;7.95;;;0.10;99.90;;;;;;5035230;28;20029;-88
2022/03/08 02:14:03;;;;;;;16.45;8.35;;;0.10;99.90;;;;;;5035337;28;20045;-88
2022/03/08 02:16:29;;;;;;;16.58;8.30;;;0.10;99.90;;;;;;5035119;28;20025;-88
2022/03/08 02:18:54;;;;;;;14.75;7.82;;;0.10;99.90;;;;;;5036133;28;20021;-88
2022/03/08 02:21:21;;;;;;;12.25;7.93;;;0.10;99.90;;;;;;5034957;28;20132;-88
2022/03/08 02:23:46;;;;;;;13.95;8.35;;;0.10;99.90;;;;;;5035125;28;20061;-88
2022/03/08 02:26:12;;;;;;;13.75;7.90;;;0.10;99.90;;;;;;5034909;28;20053;-88
2022/03/08 02:28:39;;;;;;;13.13;7.93;;;0.10;99.90;;;;;;5035035;28;20040;-88
2022/03/08 02:31:05;;;;;;;12.10;7.63;;;0.10;99.90;;;;;;5034852;28;20021;-88
2022/03/08 02:33:31;;;;;;;13.45;8.20;;;0.10;99.90;;;;;;5035977;28;20032;-88
2022/03/08 02:35:56;;;;;;;14.23;7.72;;;0.10;99.90;;;;;;5034912;28;20029;-88
2022/03/08 02:38:22;;;;;;;14.40;8.88;;;0.10;99.90;;;;;;5034820;28;20032;-88
2022/03/08 02:40:48;;;;;;;16.38;8.45;;;0.10;99.90;;;;;;5035877;28;20017;-88
2022/03/08 02:43:15;;;;;;;14.18;8.18;;;0.00;99.90;;;;;;5035788;28;20051;-88
2022/03/08 02:45:41;;;;;;;18.80;8.43;;;0.00;99.90;;;;;;5035669;28;20017;-88
2022/03/08 02:48:08;;;;;;;16.30;7.78;;;0.00;99.90;;;;;;5034607;28;20031;-88
2022/03/08 02:50:33;;;;;;;13.75;7.70;;;0.10;99.90;;;;;;5034389;28;20104;-88
2022/03/08 02:53:00;;;;;;;15.20;7.70;;;0.10;99.90;;;;;;5034408;28;20026;-87
2022/03/08 02:55:28;;;;;;;15.63;7.82;;;0.10;99.90;;;;;;5034501;28;20025;-87
2022/03/08 02:57:55;;;;;;;14.70;7.78;;;0.10;99.90;;;;;;5035539;28;20024;-87
2022/03/08 03:00:23;;;;;;;11.68;7.13;;;0.00;99.90;;;;;;5034345;28;20025;-88
2022/03/08 03:02:49;;;;;;;12.32;7.72;;;0.00;99.90;;;;;;5035428;28;20025;-88
2022/03/08 03:05:15;;;;;;;13.75;7.20;;;-0.10;99.90;;;;;;5034322;28;20083;-88
2022/03/08 03:07:43;;;;;;;13.43;6.55;;;-0.10;99.90;;;;;;5034240;28;20037;-87
2022/03/08 03:10:12;;;;;;;12.02;6.60;;;-0.10;99.90;;;;;;5034300;28;20025;-88
2022/03/08 03:12:38;;;;;;;11.52;7.00;;;-0.10;99.90;;;;;;5033748;28;20495;-87
2022/03/08 03:15:06;;;;;;;13.15;7.20;;;-0.10;99.90;;;;;;5033923;28;20395;-88
2022/03/08 03:17:31;;;;;;;12.02;7.30;;;-0.10;99.90;;;;;;5035186;28;20021;-88
2022/03/08 03:19:58;;;;;;;10.85;6.60;;;-0.20;99.90;;;;;;5034921;28;20116;-86
2022/03/08 03:22:23;;;;;;;14.23;7.25;;;-0.10;99.90;;;;;;5033830;28;20500;-88
2022/03/08 03:24:49;;;;;;;11.88;6.45;;;-0.10;99.90;;;;;;5034985;28;20065;-88
2022/03/08 03:27:15;;;;;;;12.90;7.25;;;-0.20;99.90;;;;;;5033829;28;20393;-88
2022/03/08 03:29:41;;;;;;;13.10;7.28;;;-0.10;99.90;;;;;;5034959;28;20021;-88
2022/03/08 03:32:07;;;;;;;14.27;7.18;;;-0.10;99.90;;;;;;5033895;28;20440;-88
2022/03/08 03:34:33;;;;;;;14.10;7.90;;;-0.10;99.90;;;;;;5034833;28;20025;-88
2022/03/08 03:36:58;;;;;;;12.88;7.25;;;-0.10;99.90;;;;;;5033743;28;20361;-87
2022/03/08 03:39:24;;;;;;;16.17;7.55;;;-0.20;99.90;;;;;;5033595;28;20033;-88
2022/03/08 03:41:50;;;;;;;17.08;7.88;;;-0.10;99.90;;;;;;5033686;28;20026;-88
2022/03/08 03:44:16;;;;;;;12.13;7.07;;;-0.10;99.90;;;;;;5033255;28;20061;-88
2022/03/08 03:46:42;;;;;;;12.68;7.43;;;-0.20;99.90;;;;;;5033528;28;20090;-88
2022/03/08 03:49:08;;;;;;;16.83;8.10;;;-0.20;99.90;;;;;;5034588;28;20018;-88
2022/03/08 03:51:34;;;;;;;12.50;6.90;;;-0.10;99.90;;;;;;5033594;28;20029;-88
2022/03/08 03:53:59;;;;;;;15.95;7.47;;;-0.10;99.90;;;;;;5033504;28;20075;-88
2022/03/08 03:56:25;;;;;;;13.95;7.45;;;-0.10;99.90;;;;;;5033481;28;20075;-88
2022/03/08 03:58:52;;;;;;;18.05;7.50;;;-0.10;99.90;;;;;;5033536;28;20030;-87
2022/03/08 04:01:17;;;;;;;13.20;6.93;;;-0.10;99.90;;;;;;5033427;28;20101;-87
2022/03/08 04:03:43;;;;;;;12.90;7.30;;;-0.10;99.90;;;;;;5034414;28;20476;-88
2022/03/08 04:06:09;;;;;;;11.05;7.00;;;0.00;99.90;;;;;;5033496;28;20486;-88
2022/03/08 04:08:35;;;;;;;15.27;6.97;;;0.00;99.90;;;;;;5033223;28;20559;-88
2022/03/08 04:11:01;;;;;;;14.10;7.68;;;0.00;99.90;;;;;;5033424;28;20029;-87
2022/03/08 04:13:26;;;;;;;10.23;6.30;;;0.00;99.90;;;;;;5033455;28;20022;-87
2022/03/08 04:15:52;;;;;;;15.07;7.55;;;0.10;99.90;;;;;;5033127;28;20060;-88
2022/03/08 04:18:19;;;;;;;17.75;7.18;;;0.00;99.90;;;;;;5033386;28;20089;-88
2022/03/08 04:20:45;;;;;;;12.23;6.90;;;0.00;99.90;;;;;;5034136;28;20115;-88
2022/03/08 04:23:11;;;;;;;12.60;7.75;;;0.00;99.90;;;;;;5034364;28;20026;-88
2022/03/08 04:25:37;;;;;;;13.45;7.97;;;0.00;99.90;;;;;;5035685;28;20029;-87
2022/03/08 04:28:04;;;;;;;14.10;7.95;;;0.00;99.90;;;;;;5037130;28;20029;-87
2022/03/08 04:30:31;;;;;;;17.83;7.90;;;0.00;99.90;;;;;;5037102;28;20021;-88
2022/03/08 04:32:57;;;;;;;13.50;7.40;;;0.00;99.90;;;;;;5038335;28;20037;-87
2022/03/08 04:35:23;;;;;;;14.23;7.25;;;0.00;99.90;;;;;;5036926;28;20048;-88
2022/03/08 04:37:49;;;;;;;13.35;6.82;;;0.00;99.90;;;;;;5038164;28;20053;-88
2022/03/08 04:40:14;;;;;;;11.98;7.43;;;0.00;99.90;;;;;;5038151;28;20021;-88
2022/03/08 04:42:42;;;;;;;14.57;7.70;;;0.00;99.90;;;;;;5038010;28;20021;-88
2022/03/08 04:45:09;;;;;;;14.18;7.93;;;0.00;99.90;;;;;;5037809;28;20025;-88
2022/03/08 04:47:36;;;;;;;17.63;9.05;;;0.00;99.90;;;;;;5037937;28;20051;-88
2022/03/08 04:50:04;;;;;;;18.42;8.70;;;0.00;99.90;;;;;;5036493;28;20064;-88
2022/03/08 04:52:30;;;;;;;17.15;7.85;;;0.10;99.90;;;;;;5037973;28;20049;-88
2022/03/08 04:54:55;;;;;;;15.18;8.13;;;0.10;99.90;;;;;;5037854;28;20372;-88
2022/03/08 04:57:21;;;;;;;16.30;8.75;;;0.10;99.90;;;;;;5036217;28;20029;-88
2022/03/08 04:59:47;;;;;;;15.98;8.18;;;0.10;99.90;;;;;;5036592;28;20435;-88
2022/03/08 05:02:13;;;;;;;17.48;8.60;;;0.20;99.90;;;;;;5037656;28;20026;-88
2022/03/08 05:04:38;;;;;;;18.20;8.73;;;0.20;99.90;;;;;;5037525;28;20022;-87
2022/03/08 05:07:04;;;;;;;15.65;8.00;;;0.20;99.90;;;;;;5036551;28;20079;-88
2022/03/08 05:09:30;;;;;;;13.38;7.50;;;0.20;99.90;;;;;;5036275;28;20374;-88
2022/03/08 05:11:56;;;;;;;16.67;8.38;;;0.20;99.90;;;;;;5037421;28;20021;-88
2022/03/08 05:14:21;;;;;;;14.75;7.60;;;0.20;99.90;;;;;;5036423;28;20025;-88
2022/03/08 05:16:47;;;;;;;15.45;7.47;;;0.20;99.90;;;;;;5036154;28;20056;-88
2022/03/08 05:19:13;;;;;;;12.63;7.72;;;0.30;99.90;;;;;;5036216;28;20068;-88
2022/03/08 05:21:39;;;;;;;15.77;6.95;;;0.30;99.90;;;;;;5036971;28;20060;-88
2022/03/08 05:24:05;;;;;;;12.23;6.55;;;0.30;99.90;;;;;;5036131;28;20033;-88
2022/03/08 05:26:30;;;;;;;12.98;7.15;;;0.40;99.90;;;;;;5036248;28;20116;-88
2022/03/08 05:28:56;;;;;;;11.48;7.65;;;0.30;99.90;;;;;;5035946;28;20116;-88
2022/03/08 05:31:22;;;;;;;12.77;7.05;;;0.30;99.90;;;;;;5036012;28;20045;-88
2022/03/08 05:33:47;;;;;;;11.02;6.90;;;0.20;99.90;;;;;;5036343;28;20025;-88
2022/03/08 05:36:13;;;;;;;15.43;6.95;;;0.10;99.90;;;;;;5035671;28;20468;-88
2022/03/08 05:38:39;;;;;;;14.57;7.63;;;0.00;99.90;;;;;;5035684;28;20025;-88
2022/03/08 05:41:05;;;;;;;12.23;7.18;;;-0.10;99.90;;;;;;5035724;28;20026;-87
2022/03/08 05:43:30;;;;;;;14.02;6.70;;;-0.10;99.90;;;;;;5036956;28;20029;-88
2022/03/08 05:45:56;;;;;;;12.73;6.72;;;-0.20;99.90;;;;;;5036818;28;20096;-88
2022/03/08 05:48:22;;;;;;;13.73;7.55;;;-0.20;99.90;;;;;;5035631;28;20026;-88
2022/03/08 05:50:47;;;;;;;12.02;6.95;;;-0.20;99.90;;;;;;5035534;28;20037;-88
2022/03/08 05:53:13;;;;;;;15.40;8.38;;;-0.30;99.90;;;;;;5035910;28;20037;-88
2022/03/08 05:55:39;;;;;;;30.90;14.88;;;-0.30;99.90;;;;;;5036712;28;20384;-87
2022/03/08 05:58:04;;;;;;;21.98;11.35;;;-0.30;99.90;;;;;;5035136;28;20464;-87
2022/03/08 06:00:30;;;;;;;19.75;10.93;;;-0.30;99.90;;;;;;5035882;28;20494;-87
2022/03/08 06:02:56;;;;;;;16.70;10.23;;;-0.20;99.90;;;;;;5035281;28;20089;-87
2022/03/08 06:05:22;;;;;;;15.43;9.63;;;-0.20;99.90;;;;;;5035532;28;20021;-88
2022/03/08 06:07:48;;;;;;;14.20;7.95;;;-0.20;99.90;;;;;;5035460;28;20026;-87
2022/03/08 06:10:14;;;;;;;16.65;8.25;;;-0.10;99.90;;;;;;5036089;28;20025;-87
2022/03/08 06:12:41;;;;;;;16.58;7.93;;;-0.10;99.90;;;;;;5035075;28;20021;-87
2022/03/08 06:15:08;;;;;;;11.43;6.97;;;-0.10;99.90;;;;;;5035164;28;20021;-87
2022/03/08 06:17:34;;;;;;;10.65;6.25;;;0.00;99.90;;;;;;5035269;28;20048;-87
2022/03/08 06:20:00;;;;;;;11.55;6.10;;;0.10;99.90;;;;;;5034922;28;20484;-87
2022/03/08 06:22:26;;;;;;;11.23;6.82;;;0.10;99.90;;;;;;5036212;28;20030;-87
2022/03/08 06:24:52;;;;;;;11.38;6.25;;;0.20;99.90;;;;;;5035045;28;20619;-87
2022/03/08 06:27:17;;;;;;;9.88;6.20;;;0.20;99.90;;;;;;5036037;28;20472;-88
2022/03/08 06:29:43;;;;;;;10.48;6.25;;;0.20;99.90;;;;;;5034811;28;20065;-88
2022/03/08 06:32:09;;;;;;;8.65;6.18;;;0.10;99.90;;;;;;5035135;28;20100;-88
2022/03/08 06:34:35;;;;;;;9.50;6.22;;;0.10;99.90;;;;;;5034860;28;20030;-88
2022/03/08 06:37:01;;;;;;;10.85;5.78;;;0.10;99.90;;;;;;5034813;28;20423;-88
2022/03/08 06:39:27;;;;;;;11.30;6.45;;;0.20;99.90;;;;;;5034622;28;20470;-87
2022/03/08 06:41:52;;;;;;;11.48;6.43;;;0.20;99.90;;;;;;5035803;28;20025;-87
2022/03/08 06:44:18;;;;;;;15.90;8.55;;;0.30;99.90;;;;;;5034698;28;20029;-88
2022/03/08 06:46:46;;;;;;;12.73;6.78;;;0.30;99.90;;;;;;5034590;28;20056;-87
2022/03/08 06:49:13;;;;;;;12.82;7.40;;;0.40;99.90;;;;;;5034123;28;20022;-87
2022/03/08 06:51:39;;;;;;;10.93;6.85;;;0.50;99.90;;;;;;5034503;28;20021;-87
2022/03/08 06:54:05;;;;;;;15.10;7.50;;;0.50;99.90;;;;;;5035926;28;20022;-88
2022/03/08 06:56:33;;;;;;;14.48;7.28;;;0.50;99.90;;;;;;5034585;28;20022;-87
2022/03/08 06:59:00;;;;;;;10.20;6.30;;;0.60;99.90;;;;;;5034418;28;20032;-88
2022/03/08 07:01:26;;;;;;;13.93;6.65;;;0.70;99.90;;;;;;5034385;28;20030;-87
2022/03/08 07:03:51;;;;;;;13.35;6.60;;;0.80;99.90;;;;;;5034033;28;20082;-88
2022/03/08 07:06:17;;;;;;;13.52;6.60;;;0.90;99.90;;;;;;5034406;28;20030;-87
2022/03/08 07:08:43;;;;;;;10.75;6.70;;;1.00;99.90;;;;;;5034067;28;20021;-87
2022/03/08 07:11:09;;;;;;;11.20;6.50;;;1.10;99.90;;;;;;5035229;28;20119;-87
2022/03/08 07:13:35;;;;;;;12.52;6.00;;;1.10;99.90;;;;;;5035228;28;20052;-87
2022/03/08 07:16:01;;;;;;;10.00;6.55;;;1.20;99.90;;;;;;5034163;28;20048;-88
2022/03/08 07:18:27;;;;;;;10.55;5.95;;;1.30;99.90;;;;;;5034048;28;20534;-88
2022/03/08 07:20:53;;;;;;;13.75;7.25;;;1.30;99.90;;;;;;5033329;28;20068;-87
2022/03/08 07:23:18;;;;;;;12.52;5.90;;;1.30;99.90;;;;;;5033752;28;20468;-87
2022/03/08 07:25:44;;;;;;;12.88;5.90;;;1.40;99.90;;;;;;5034908;28;20026;-87
2022/03/08 07:28:10;;;;;;;11.90;6.78;;;1.50;99.90;;;;;;5033753;28;20041;-88
2022/03/08 07:30:36;;;;;;;11.50;6.38;;;1.60;99.90;;;;;;5033467;28;20021;-87
2022/03/08 07:33:02;;;;;;;15.88;6.68;;;1.70;99.90;;;;;;5033610;28;20021;-86
2022/03/08 07:35:28;;;;;;;8.57;6.57;;;1.80;99.90;;;;;;5033089;28;20026;-87
2022/03/08 07:37:54;;;;;;;10.95;6.20;;;2.00;99.90;;;;;;5033742;28;20032;-86
2022/03/08 07:40:20;;;;;;;8.93;5.43;;;2.20;99.90;;;;;;5033403;28;20061;-88
2022/03/08 07:42:46;;;;;;;11.02;5.95;;;2.30;99.90;;;;;;5033132;28;20595;-86
2022/03/08 07:45:12;;;;;;;8.00;5.43;;;2.40;99.90;;;;;;5032552;28;20057;-87
2022/03/08 07:47:39;;;;;;;9.55;5.97;;;2.30;99.90;;;;;;5033531;28;20028;-87
2022/03/08 07:50:12;;;;;;;8.88;5.57;;;2.20;99.90;;;;;;5032375;28;20025;-85
2022/03/08 07:52:38;;;;;;;11.63;5.97;;;2.20;99.90;;;;;;5032550;28;20048;-85
2022/03/08 07:55:08;;;;;;;15.88;6.35;;;2.20;99.90;;;;;;5031851;28;20028;-85
2022/03/08 07:57:35;;;;;;;12.85;6.20;;;2.30;99.90;;;;;;5032017;28;20112;-85
2022/03/08 08:00:03;;;;;;;10.80;5.60;;;2.30;99.90;;;;;;5032201;28;20076;-86
2022/03/08 08:02:29;;;;;;;11.85;6.47;;;2.30;99.90;;;;;;5032021;28;20087;-86
2022/03/08 08:04:56;;;;;;;10.63;5.97;;;2.30;99.90;;;;;;5033040;28;20100;-85
2022/03/08 08:07:24;;;;;;;10.13;5.53;;;2.40;99.90;;;;;;5031966;28;20026;-86
2022/03/08 08:09:50;;;;;;;9.48;6.13;;;2.50;99.90;;;;;;5031726;28;20060;-85
2022/03/08 08:12:16;;;;;;;9.50;5.80;;;2.50;99.90;;;;;;5033246;28;20022;-85
2022/03/08 08:14:42;;;;;;;12.77;7.18;;;2.60;99.90;;;;;;5033254;28;20017;-86
2022/03/08 08:17:08;;;;;;;11.93;5.93;;;2.60;99.90;;;;;;5031806;28;20103;-86
2022/03/08 08:19:37;;;;;;;12.10;6.18;;;2.70;99.90;;;;;;5031850;28;20484;-86
2022/03/08 08:22:04;;;;;;;11.20;5.80;;;2.80;99.90;;;;;;5032977;28;20488;-86
2022/03/08 08:24:30;;;;;;;11.95;5.68;;;2.90;99.90;;;;;;5030129;28;20108;-86
2022/03/08 08:26:56;;;;;;;11.57;5.53;;;2.90;99.90;;;;;;5032347;28;20030;-86
2022/03/08 08:29:25;;;;;;;13.88;6.55;;;2.90;99.90;;;;;;5032998;28;20045;-85
2022/03/08 08:31:51;;;;;;;16.33;6.55;;;2.90;99.80;;;;;;5032185;28;20025;-86
2022/03/08 08:34:17;;;;;;;14.55;5.90;;;2.90;98.90;;;;;;5032486;28;20028;-86
2022/03/08 08:36:46;;;;;;;11.50;4.50;;;3.00;99.30;;;;;;5033662;28;20026;-86
2022/03/08 08:39:14;;;;;;;10.00;5.35;;;3.10;99.00;;;;;;5032689;28;20025;-86
2022/03/08 08:41:44;;;;;;;5.88;4.50;;;3.10;97.80;;;;;;5032902;28;20480;-86
2022/03/08 08:44:11;;;;;;;9.60;5.07;;;3.10;98.30;;;;;;5033744;28;20033;-87
2022/03/08 08:46:38;;;;;;;7.97;4.50;;;3.20;97.90;;;;;;5032636;28;20128;-87
2022/03/08 08:49:04;;;;;;;10.30;4.78;;;3.20;97.60;;;;;;5032410;28;20061;-87
2022/03/08 08:51:31;;;;;;;10.77;4.90;;;3.20;97.70;;;;;;5032558;28;20388;-87
2022/03/08 08:53:57;;;;;;;9.15;5.30;;;3.30;98.30;;;;;;5033662;28;20033;-87
2022/03/08 08:56:24;;;;;;;7.63;4.90;;;3.40;98.30;;;;;;5032608;28;20033;-87
2022/03/08 08:58:49;;;;;;;6.78;4.50;;;3.50;97.80;;;;;;5033366;28;20022;-87
2022/03/08 09:01:15;;;;;;;7.13;4.55;;;3.60;97.50;;;;;;5031775;28;20053;-87
2022/03/08 09:03:41;;;;;;;7.82;4.80;;;3.60;97.00;;;;;;5032859;28;20033;-87
2022/03/08 09:06:07;;;;;;;8.35;4.78;;;3.60;96.90;;;;;;5031213;28;20083;-87
2022/03/08 09:08:33;;;;;;;6.80;4.68;;;3.80;96.70;;;;;;5031187;28;20025;-87
2022/03/08 09:10:59;;;;;;;6.05;4.07;;;3.90;97.20;;;;;;5032632;28;20461;-87
2022/03/08 09:13:25;;;;;;;6.03;4.53;;;3.90;96.60;;;;;;5035948;28;20096;-87
2022/03/08 09:15:51;;;;;;;10.38;5.30;;;3.80;96.50;;;;;;5034896;28;20017;-87
2022/03/08 09:18:18;;;;;;;9.32;4.97;;;3.90;95.70;;;;;;5034905;28;20021;-86
2022/03/08 09:20:44;;;;;;;7.03;4.57;;;3.90;96.90;;;;;;5034608;28;20151;-88
2022/03/08 09:23:09;;;;;;;11.80;5.45;;;4.00;96.60;;;;;;5035270;28;20495;-88
2022/03/08 09:25:36;;;;;;;16.17;6.95;;;4.00;97.10;;;;;;5035453;28;20030;-89
2022/03/08 09:28:05;;;;;;;11.75;8.02;;;3.90;96.90;;;;;;5035068;28;20034;-87
2022/03/08 09:30:31;;;;;;;38.70;23.38;;;3.70;97.90;;;;;;5035744;28;20388;-90
2022/03/08 09:32:58;;;;;;;16.73;9.90;;;3.60;98.10;;;;;;5035885;28;20484;-89
2022/03/08 09:35:26;;;;;;;12.90;7.55;;;3.60;98.90;;;;;;5035708;28;20033;-88
2022/03/08 09:37:52;;;;;;;13.75;7.30;;;3.60;99.30;;;;;;5035473;28;20468;-88
2022/03/08 09:40:18;;;;;;;11.63;5.10;;;3.50;97.70;;;;;;5036601;28;20498;-87
2022/03/08 09:42:44;;;;;;;7.60;4.93;;;3.40;96.60;;;;;;5030187;28;20081;-87
2022/03/08 09:45:11;;;;;;;7.22;4.43;;;3.50;97.60;;;;;;5026053;28;20026;-88
2022/03/08 09:47:38;;;;;;;7.10;4.75;;;3.50;97.60;;;;;;5025855;28;20029;-87
2022/03/08 09:50:04;;;;;;;6.35;4.28;;;3.70;96.30;;;;;;5026465;28;20075;-87
2022/03/08 09:52:36;;;;;;;7.57;4.90;;;3.70;97.10;;;;;;5023756;28;20028;-87
2022/03/08 09:55:03;;;;;;;8.07;5.15;;;3.80;96.60;;;;;;5025007;28;20387;-88
2022/03/08 09:57:29;;;;;;;10.07;5.90;;;3.90;96.20;;;;;;5025835;28;20380;-88
2022/03/08 09:59:54;;;;;;;7.88;5.38;;;4.10;96.70;;;;;;5023948;28;20026;-88
2022/03/08 10:02:22;;;;;;;11.32;6.32;;;4.00;97.50;;;;;;5025152;28;20468;-88
2022/03/08 10:05:04;;;;;;;8.75;6.75;;;3.90;98.30;;;;;;5025728;28;20113;-86
2022/03/08 10:07:30;;;;;;;9.00;6.57;;;3.60;98.90;;;;;;5050973;28;20049;-88
2022/03/08 10:09:59;;;;;;;9.50;6.93;;;3.50;99.50;;;;;;5035265;28;20068;-88
2022/03/08 10:12:26;;;;;;;10.63;7.05;;;3.40;99.90;;;;;;5032312;28;20032;-88
2022/03/08 10:14:52;;;;;;;9.20;6.25;;;3.30;99.90;;;;;;5027763;28;20024;-88
2022/03/08 10:17:36;;;;;;;9.95;6.35;;;3.30;99.90;;;;;;5035130;28;20025;-88
2022/03/08 10:20:03;;;;;;;8.80;6.28;;;3.40;99.90;;;;;;5035918;28;20076;-89
2022/03/08 10:22:32;;;;;;;7.50;5.38;;;3.40;99.90;;;;;;5033908;28;20085;-89
2022/03/08 10:25:10;;;;;;;8.00;5.10;;;3.50;99.90;;;;;;5036037;28;20075;-88
2022/03/08 10:27:36;;;;;;;25.65;14.43;;;3.50;99.90;;;;;;5031700;28;20082;-90
2022/03/08 10:30:04;;;;;;;10.95;7.82;;;3.50;99.90;;;;;;5031658;28;20037;-88
2022/03/08 10:32:37;;;;;;;10.18;5.90;;;3.50;99.90;;;;;;5035953;28;20025;-88
2022/03/08 10:35:04;;;;;;;7.93;4.93;;;3.50;99.90;;;;;;5034575;28;20028;-88
2022/03/08 10:37:36;;;;;;;10.07;4.93;;;3.50;99.90;;;;;;5034764;28;20017;-88
2022/03/08 10:40:07;;;;;;;6.75;5.00;;;3.50;99.90;;;;;;5027017;28;20030;-88
2022/03/08 10:42:36;;;;;;;9.23;6.00;;;3.60;99.90;;;;;;5020506;28;20053;-89
2022/03/08 10:45:07;;;;;;;12.02;8.38;;;3.70;99.90;;;;;;5018055;28;20080;-89
2022/03/08 10:47:51;;;;;;;8.90;6.75;;;3.70;99.90;;;;;;5016169;28;20119;-89
2022/03/08 10:50:19;;;;;;;13.80;9.25;;;3.70;99.90;;;;;;5014343;28;20366;-90
2022/03/08 10:52:47;;;;;;;11.15;7.30;;;3.70;99.90;;;;;;5014997;28;20021;-89
2022/03/08 10:55:17;;;;;;;12.30;8.35;;;3.70;99.90;;;;;;5014492;28;20030;-86
2022/03/08 10:57:50;;;;;;;29.00;18.55;;;3.90;99.90;;;;;;5014640;28;20160;-88
2022/03/08 11:00:20;;;;;;;10.85;7.03;;;4.10;99.90;;;;;;5014387;28;20026;-88
2022/03/08 11:02:55;;;;;;;9.48;6.03;;;4.20;99.90;;;;;;5014412;28;20121;-88
2022/03/08 11:05:24;;;;;;;6.68;4.88;;;4.40;99.90;;;;;;5014292;28;20037;-88
2022/03/08 11:07:50;;;;;;;6.72;4.70;;;4.50;99.90;;;;;;5014432;28;20037;-89
2022/03/08 11:10:17;;;;;;;6.25;4.55;;;4.60;99.90;;;;;;5015334;28;20105;-88
2022/03/08 11:12:44;;;;;;;5.80;4.15;;;4.70;99.90;;;;;;5014348;28;20064;-89
2022/03/08 11:15:13;;;;;;;7.10;4.70;;;4.90;99.90;;;;;;5015397;28;20021;-89
2022/03/08 11:17:42;;;;;;;6.28;4.72;;;4.90;99.90;;;;;;5014588;28;20112;-89
2022/03/08 11:20:09;;;;;;;8.95;6.00;;;4.90;99.90;;;;;;5015094;28;20104;-88
2022/03/08 11:22:36;;;;;;;11.38;6.25;;;5.00;99.70;;;;;;5014583;28;20476;-88
2022/03/08 11:25:02;;;;;;;8.38;5.65;;;5.00;99.80;;;;;;5013140;28;20030;-88
2022/03/08 11:27:29;;;;;;;12.43;7.32;;;5.00;99.90;;;;;;5013508;28;20401;-87
2022/03/08 11:29:54;;;;;;;9.10;5.63;;;4.90;99.70;;;;;;5012028;28;20034;-88
2022/03/08 11:32:29;;;;;;;7.90;5.15;;;4.40;99.90;;;;;;5012829;28;20022;-88
2022/03/08 11:35:01;;;;;;;7.53;4.18;;;4.10;99.90;;;;;;5012340;28;20118;-87
2022/03/08 11:37:29;;;;;;;4.82;3.85;;;3.60;99.90;;;;;;5013926;28;20018;-87
2022/03/08 11:40:15;;;;;;;4.32;2.70;;;3.20;99.90;;;;;;5013904;28;20038;-88
2022/03/08 11:42:47;;;;;;;2.25;2.08;;;3.00;99.90;;;;;;5013685;28;20026;-88
2022/03/08 11:45:21;;;;;;;2.30;2.10;;;2.70;99.90;;;;;;5013609;28;20022;-87
2022/03/08 11:47:53;;;;;;;2.72;2.20;;;2.50;99.90;;;;;;5013707;28;20030;-88
2022/03/08 11:50:37;;;;;;;3.50;2.45;;;2.40;99.90;;;;;;5013645;28;20030;-88
2022/03/08 11:53:08;;;;;;;4.88;2.83;;;2.40;99.90;;;;;;5013798;28;20381;-88
2022/03/08 11:55:43;;;;;;;4.05;2.80;;;2.30;99.90;;;;;;5013528;28;20053;-88
2022/03/08 11:58:11;;;;;;;3.70;2.80;;;2.10;99.90;;;;;;5014836;28;20461;-88
2022/03/08 12:01:03;;;;;;;3.92;3.08;;;2.10;99.90;;;;;;5013666;28;20037;-88
2022/03/08 12:03:29;;;;;;;3.78;3.00;;;1.90;99.90;;;;;;5011836;28;20080;-88
2022/03/08 12:06:09;;;;;;;4.53;3.20;;;1.80;99.90;;;;;;5013618;28;20125;-88
2022/03/08 12:08:38;;;;;;;5.70;3.70;;;1.90;99.90;;;;;;5013956;28;20040;-88
2022/03/08 12:11:14;;;;;;;5.90;3.47;;;1.90;99.90;;;;;;5013413;28;20091;-88
2022/03/08 12:13:49;;;;;;;8.10;3.47;;;2.10;99.90;;;;;;5013491;28;20026;-88
2022/03/08 12:16:25;;;;;;;7.82;3.97;;;2.10;99.90;;;;;;5013462;28;20093;-88
2022/03/08 12:18:54;;;;;;;5.60;3.88;;;2.20;99.90;;;;;;5013392;28;20105;-88
2022/03/08 12:21:23;;;;;;;7.93;4.43;;;2.30;99.90;;;;;;5013341;28;20056;-88
2022/03/08 12:23:49;;;;;;;6.73;4.37;;;2.40;99.90;;;;;;5013300;28;20058;-88
2022/03/08 12:26:30;;;;;;;4.95;3.63;;;2.50;99.90;;;;;;5013279;28;20060;-88
2022/03/08 12:29:15;;;;;;;5.32;3.65;;;2.60;99.90;;;;;;5013062;28;20080;-89
2022/03/08 12:31:59;;;;;;;6.72;3.65;;;2.80;99.90;;;;;;5013393;28;20018;-88
2022/03/08 12:34:39;;;;;;;5.07;3.42;;;3.00;99.90;;;;;;5013666;28;20093;-88
2022/03/08 12:37:18;;;;;;;;;;;3.20;99.90;;;;;;5013710;28;20081;-89
2022/03/08 12:39:50;;;;;;;10.65;4.72;;;3.30;99.90;;;;;;5013222;28;19912;-89
2022/03/08 12:42:37;;;;;;;14.30;6.32;;;3.60;99.90;;;;;;5013344;28;20420;-89
2022/03/08 12:45:06;;;;;;;10.38;4.97;;;3.70;99.90;;;;;;4973910;28;20399;-89
2022/03/08 12:47:37;;;;;;;7.78;4.43;;;3.80;99.90;;;;;;5016809;28;20052;-89
2022/03/08 12:50:20;;;;;;;7.80;4.85;;;3.90;99.90;;;;;;5016795;28;20026;-88